Time;durP1;ratioP1;P1;durP2;ratioP2;P2;SDS_P1;SDS_P2;PMS_P1;PMS_P2;Temp;Humidity;BMP_temperature;BMP_pressure;BME280_temperature;BME280_humidity;BME280_pressure;Samples;Min_cycle;Max_cycle;Signal;HPM_P1;HPM_P2
2021/01/18 00:01:39;;;;;;;55.15;24.02;;;4.60;99.90;;;;;;5073761;28;20064;-70
2021/01/18 00:04:05;;;;;;;58.95;23.15;;;4.60;99.90;;;;;;5075107;28;20029;-67
2021/01/18 00:06:30;;;;;;;66.30;24.95;;;4.70;99.90;;;;;;5075850;28;20086;-69
2021/01/18 00:08:56;;;;;;;57.92;24.13;;;4.60;99.90;;;;;;5077729;28;20028;-70
2021/01/18 00:11:22;;;;;;;61.83;25.80;;;4.80;99.90;;;;;;5059717;28;20132;-69
2021/01/18 00:13:50;;;;;;;58.60;24.20;;;4.70;99.90;;;;;;5054998;28;20099;-70
2021/01/18 00:16:20;;;;;;;63.50;23.98;;;4.80;99.90;;;;;;5054858;28;20033;-69
2021/01/18 00:18:46;;;;;;;63.83;24.92;;;4.90;99.90;;;;;;5055497;28;20393;-68
2021/01/18 00:21:13;;;;;;;64.65;24.30;;;4.90;99.90;;;;;;5077085;28;20389;-69
2021/01/18 00:23:39;;;;;;;59.42;23.77;;;4.80;99.90;;;;;;5074369;28;20055;-69
2021/01/18 00:26:06;;;;;;;56.60;23.45;;;4.80;99.90;;;;;;5075403;28;20032;-70
2021/01/18 00:28:32;;;;;;;58.78;22.60;;;4.80;99.90;;;;;;5074790;28;20036;-69
2021/01/18 00:31:04;;;;;;;55.45;21.52;;;4.80;99.90;;;;;;5075223;28;20029;-70
2021/01/18 00:33:31;;;;;;;48.85;20.73;;;4.90;99.90;;;;;;5074624;28;20032;-68
2021/01/18 00:35:57;;;;;;;50.45;20.48;;;4.80;99.90;;;;;;5075790;28;20121;-68
2021/01/18 00:38:23;;;;;;;47.33;19.67;;;4.90;99.90;;;;;;5075014;28;20079;-68
2021/01/18 00:40:48;;;;;;;49.40;20.38;;;5.00;99.90;;;;;;5073028;28;20044;-69
2021/01/18 00:43:14;;;;;;;51.05;20.15;;;4.80;99.90;;;;;;5074648;28;20033;-70
2021/01/18 00:45:40;;;;;;;47.97;19.40;;;4.80;99.90;;;;;;5074847;28;20024;-70
2021/01/18 00:48:06;;;;;;;49.40;19.17;;;5.00;99.90;;;;;;5076653;28;20438;-69
2021/01/18 00:50:32;;;;;;;45.72;17.70;;;5.00;99.90;;;;;;5074384;28;20032;-69
2021/01/18 00:52:59;;;;;;;45.25;18.15;;;5.10;99.90;;;;;;5073522;28;20094;-69
2021/01/18 00:55:26;;;;;;;39.22;17.30;;;5.20;99.90;;;;;;5074011;28;20128;-69
2021/01/18 00:57:52;;;;;;;41.88;17.35;;;5.30;99.90;;;;;;5074313;28;20419;-69
2021/01/18 01:00:24;;;;;;;44.15;17.77;;;5.30;99.90;;;;;;5076056;28;20029;-69
2021/01/18 01:02:51;;;;;;;40.78;16.23;;;5.30;99.90;;;;;;5074781;28;20036;-68
2021/01/18 01:05:22;;;;;;;52.05;16.67;;;5.30;99.90;;;;;;5074576;28;20043;-70
2021/01/18 01:07:52;;;;;;;39.70;16.35;;;5.20;99.90;;;;;;5071791;28;20075;-70
2021/01/18 01:10:25;;;;;;;37.90;15.55;;;5.30;99.90;;;;;;5072925;28;20523;-70
2021/01/18 01:13:07;;;;;;;44.55;16.58;;;5.20;99.90;;;;;;5074385;28;20048;-72
2021/01/18 01:15:34;;;;;;;41.13;15.80;;;5.10;99.90;;;;;;5073754;28;20028;-69
2021/01/18 01:18:01;;;;;;;49.10;17.20;;;5.40;99.90;;;;;;5074809;28;20362;-71
2021/01/18 01:20:27;;;;;;;39.15;16.50;;;5.50;99.90;;;;;;5073814;28;20036;-70
2021/01/18 01:22:53;;;;;;;53.28;17.25;;;5.50;99.90;;;;;;5072252;28;20450;-68
2021/01/18 01:25:21;;;;;;;55.90;17.00;;;5.40;99.90;;;;;;5072944;28;20455;-69
2021/01/18 01:27:47;;;;;;;56.10;18.30;;;5.30;99.90;;;;;;5073731;28;20037;-69
2021/01/18 01:30:18;;;;;;;52.40;17.88;;;5.30;99.90;;;;;;5075902;28;20032;-69
2021/01/18 01:32:49;;;;;;;44.25;16.25;;;5.30;99.90;;;;;;5071481;28;20085;-69
2021/01/18 01:35:18;;;;;;;50.05;17.40;;;5.10;99.90;;;;;;5074083;28;20060;-69
2021/01/18 01:37:44;;;;;;;59.63;18.45;;;5.20;99.90;;;;;;5070206;28;20052;-70
2021/01/18 01:40:12;;;;;;;56.63;17.45;;;5.20;99.90;;;;;;5070167;28;20055;-70
2021/01/18 01:42:42;;;;;;;51.22;19.25;;;5.30;99.90;;;;;;5073388;28;20020;-69
2021/01/18 01:45:12;;;;;;;54.65;18.45;;;5.40;99.90;;;;;;5074896;28;20031;-68
2021/01/18 01:47:41;;;;;;;56.08;18.98;;;5.20;99.90;;;;;;5071049;28;20037;-69
2021/01/18 01:50:13;;;;;;;56.35;18.15;;;5.20;99.90;;;;;;5070617;28;20028;-69
2021/01/18 01:52:45;;;;;;;53.50;18.20;;;5.30;99.90;;;;;;5070949;28;20033;-70
2021/01/18 01:55:27;;;;;;;59.17;19.45;;;5.30;99.90;;;;;;5071851;28;20051;-69
2021/01/18 01:57:54;;;;;;;51.97;18.88;;;5.30;99.90;;;;;;5071730;28;20111;-71
2021/01/18 02:00:21;;;;;;;67.05;20.48;;;5.20;99.90;;;;;;5075045;28;20197;-69
2021/01/18 02:02:46;;;;;;;51.00;17.55;;;5.20;99.90;;;;;;5072642;28;20036;-68
2021/01/18 02:05:14;;;;;;;55.25;17.17;;;5.40;99.90;;;;;;5073879;28;20519;-70
2021/01/18 02:07:41;;;;;;;51.08;17.90;;;5.40;99.90;;;;;;5072560;28;20415;-69
2021/01/18 02:10:07;;;;;;;51.10;16.08;;;5.40;99.90;;;;;;5067790;28;20112;-69
2021/01/18 02:12:33;;;;;;;47.90;14.93;;;5.30;99.90;;;;;;5053603;28;20017;-68
2021/01/18 02:15:24;;;;;;;47.97;16.37;;;5.30;99.90;;;;;;5054146;28;20070;-70
2021/01/18 02:17:53;;;;;;;56.05;16.02;;;5.30;99.90;;;;;;5053004;28;20229;-70
2021/01/18 02:20:31;;;;;;;51.08;16.92;;;5.20;99.90;;;;;;5051850;28;20037;-70
2021/01/18 02:23:15;;;;;;;;;;;5.40;99.90;;;;;;5065229;28;20131;-69
2021/01/18 02:25:54;;;;;;;52.55;15.73;;;5.30;99.90;;;;;;5073163;28;19908;-70
2021/01/18 02:28:50;;;;;;;46.25;15.55;;;5.40;99.90;;;;;;5073358;28;20028;-70
2021/01/18 02:31:40;;;;;;;47.75;15.00;;;5.30;99.90;;;;;;5065862;28;20099;-68
2021/01/18 02:34:12;;;;;;;50.53;17.00;;;5.40;99.90;;;;;;5072034;28;20078;-71
2021/01/18 02:37:02;;;;;;;47.72;16.42;;;5.40;99.90;;;;;;5072513;28;20066;-70
2021/01/18 02:40:06;;;;;;;47.50;15.15;;;5.30;99.90;;;;;;5071904;28;20105;-71
2021/01/18 02:42:46;;;;;;;56.40;16.85;;;5.40;99.90;;;;;;5073321;28;20013;-71
2021/01/18 02:45:14;;;;;;;61.75;15.40;;;5.40;99.90;;;;;;5074995;28;20365;-72
2021/01/18 02:47:44;;;;;;;50.25;16.13;;;5.50;99.90;;;;;;5053458;28;20036;-72
2021/01/18 02:50:11;;;;;;;50.80;15.02;;;5.40;99.90;;;;;;5061669;28;20029;-71
2021/01/18 02:52:43;;;;;;;45.42;14.27;;;5.50;99.90;;;;;;5069098;28;20459;-69
2021/01/18 02:55:10;;;;;;;40.17;12.32;;;5.50;99.90;;;;;;5072332;28;20048;-70
2021/01/18 02:57:41;;;;;;;53.50;13.00;;;5.50;99.90;;;;;;5072463;28;20029;-71
2021/01/18 03:00:12;;;;;;;43.17;12.50;;;5.60;99.90;;;;;;5074043;28;20315;-72
2021/01/18 03:03:13;;;;;;;37.42;11.50;;;5.70;99.90;;;;;;5071206;28;20090;-69
2021/01/18 03:06:16;;;;;;;35.15;9.80;;;5.70;99.90;;;;;;5072404;28;20324;-69
2021/01/18 03:08:46;;;;;;;32.22;8.95;;;5.80;99.90;;;;;;5074161;28;20068;-71
2021/01/18 03:11:17;;;;;;;34.20;8.38;;;5.80;99.90;;;;;;5072211;28;20523;-69
2021/01/18 03:13:48;;;;;;;37.85;8.38;;;5.70;99.90;;;;;;5070743;28;20374;-70
2021/01/18 03:16:22;;;;;;;38.83;8.52;;;5.80;99.90;;;;;;5070731;28;20040;-70
2021/01/18 03:18:51;;;;;;;31.35;7.43;;;5.90;99.90;;;;;;5073254;28;20135;-69
2021/01/18 03:21:17;;;;;;;32.53;7.80;;;5.90;99.90;;;;;;5075221;28;20024;-71
2021/01/18 03:23:44;;;;;;;24.45;6.75;;;5.70;99.90;;;;;;5073228;28;20044;-71
2021/01/18 03:26:11;;;;;;;26.65;7.55;;;5.90;99.90;;;;;;5071868;28;20024;-72
2021/01/18 03:28:38;;;;;;;34.08;7.43;;;5.80;99.90;;;;;;5071387;28;20025;-70
2021/01/18 03:31:04;;;;;;;32.85;7.72;;;5.80;99.90;;;;;;5072703;28;20039;-71
2021/01/18 03:33:30;;;;;;;35.75;7.28;;;5.70;99.90;;;;;;5075067;28;20025;-71
2021/01/18 03:35:56;;;;;;;31.77;7.07;;;5.80;99.90;;;;;;5078291;28;20079;-71
2021/01/18 03:38:23;;;;;;;34.35;7.75;;;5.80;99.90;;;;;;5074648;28;20045;-70
2021/01/18 03:40:50;;;;;;;24.17;6.70;;;5.80;99.90;;;;;;5075861;28;20025;-70
2021/01/18 03:43:19;;;;;;;27.40;6.28;;;5.90;99.90;;;;;;5076611;28;20027;-72
2021/01/18 03:45:46;;;;;;;23.15;6.30;;;6.00;99.90;;;;;;5075384;28;20111;-72
2021/01/18 03:48:13;;;;;;;30.73;6.93;;;6.00;99.90;;;;;;5077248;28;20012;-71
2021/01/18 03:50:40;;;;;;;40.00;7.78;;;5.80;99.90;;;;;;5076594;28;20186;-71
2021/01/18 03:53:08;;;;;;;22.08;7.10;;;5.80;99.90;;;;;;5076132;28;20495;-70
2021/01/18 03:55:34;;;;;;;30.75;7.43;;;5.90;99.90;;;;;;5073558;28;20095;-68
2021/01/18 03:58:00;;;;;;;33.72;6.53;;;5.90;99.90;;;;;;5069091;28;20025;-68
2021/01/18 04:00:28;;;;;;;28.38;6.63;;;5.90;99.90;;;;;;5051746;28;20032;-72
2021/01/18 04:02:53;;;;;;;28.35;5.93;;;5.90;99.90;;;;;;5076341;28;20103;-69
2021/01/18 04:05:21;;;;;;;25.45;6.18;;;6.00;99.90;;;;;;5075155;28;20032;-69
2021/01/18 04:07:48;;;;;;;27.25;6.40;;;5.90;99.90;;;;;;5073922;28;20040;-70
2021/01/18 04:10:16;;;;;;;28.48;5.75;;;6.00;99.90;;;;;;5074331;28;20033;-70
2021/01/18 04:12:43;;;;;;;20.83;5.22;;;5.90;99.90;;;;;;5075600;28;20357;-69
2021/01/18 04:15:12;;;;;;;29.23;5.70;;;5.90;99.90;;;;;;5076578;28;20012;-69
2021/01/18 04:17:44;;;;;;;29.50;5.00;;;5.90;99.90;;;;;;5076084;28;20039;-71
2021/01/18 04:20:11;;;;;;;33.22;7.68;;;5.90;99.90;;;;;;5076267;28;20044;-70
2021/01/18 04:22:42;;;;;;;26.77;5.93;;;5.80;99.90;;;;;;5075263;28;20035;-70
2021/01/18 04:25:08;;;;;;;30.27;5.35;;;5.80;99.90;;;;;;5074583;28;20028;-70
2021/01/18 04:27:34;;;;;;;39.88;6.78;;;5.80;99.90;;;;;;5075634;28;20025;-69
2021/01/18 04:30:00;;;;;;;25.20;5.50;;;5.90;99.90;;;;;;5077705;28;20512;-70
2021/01/18 04:32:26;;;;;;;22.05;4.82;;;5.90;99.90;;;;;;5074996;28;20033;-68
2021/01/18 04:34:51;;;;;;;27.40;4.28;;;5.90;99.90;;;;;;5074317;28;20035;-70
2021/01/18 04:37:17;;;;;;;24.90;5.57;;;6.00;99.90;;;;;;5074182;28;20055;-71
2021/01/18 04:39:43;;;;;;;24.80;4.88;;;6.00;99.90;;;;;;5073290;28;20048;-71
2021/01/18 04:42:10;;;;;;;26.80;4.90;;;6.00;99.90;;;;;;5076278;28;20020;-69
2021/01/18 04:44:36;;;;;;;23.65;4.78;;;5.90;99.90;;;;;;5074130;28;20037;-69
2021/01/18 04:47:03;;;;;;;20.67;5.60;;;6.10;99.90;;;;;;5074247;28;20651;-70
2021/01/18 04:49:29;;;;;;;35.47;5.75;;;6.10;99.90;;;;;;5074096;28;20118;-69
2021/01/18 04:51:56;;;;;;;14.90;4.90;;;6.10;99.90;;;;;;5074012;28;20426;-69
2021/01/18 04:54:24;;;;;;;24.98;6.10;;;6.00;99.90;;;;;;5075916;28;20032;-69
2021/01/18 04:57:13;;;;;;;23.73;5.75;;;6.00;99.90;;;;;;5074153;28;20052;-70
2021/01/18 04:59:49;;;;;;;22.67;5.32;;;6.10;99.90;;;;;;5073924;28;20036;-70
2021/01/18 05:02:21;;;;;;;25.20;5.55;;;5.90;99.90;;;;;;5074172;28;20037;-71
2021/01/18 05:04:49;;;;;;;22.15;4.95;;;6.00;99.90;;;;;;5067486;28;20044;-70
2021/01/18 05:07:36;;;;;;;30.65;6.35;;;6.00;99.90;;;;;;5074470;28;20032;-70
2021/01/18 05:10:05;;;;;;;24.02;5.63;;;5.80;99.90;;;;;;5073547;28;20048;-73
2021/01/18 05:12:36;;;;;;;30.17;6.18;;;5.90;99.90;;;;;;5074545;28;20093;-72
2021/01/18 05:15:07;;;;;;;30.33;5.80;;;5.90;99.90;;;;;;5077878;28;20036;-72
2021/01/18 05:17:41;;;;;;;28.50;6.13;;;6.00;99.90;;;;;;5074209;28;20083;-71
2021/01/18 05:20:10;;;;;;;33.08;6.55;;;5.80;99.90;;;;;;5073064;28;20106;-71
2021/01/18 05:22:36;;;;;;;28.92;6.18;;;5.90;99.90;;;;;;5074349;28;20086;-71
2021/01/18 05:25:06;;;;;;;30.50;7.90;;;6.00;99.90;;;;;;5073244;28;20032;-70
2021/01/18 05:27:32;;;;;;;32.10;7.72;;;6.00;99.90;;;;;;5073405;28;20687;-71
2021/01/18 05:29:58;;;;;;;48.22;8.07;;;5.90;99.90;;;;;;5074843;28;20040;-71
2021/01/18 05:32:25;;;;;;;39.35;6.88;;;5.80;99.90;;;;;;5073114;28;20043;-69
2021/01/18 05:35:12;;;;;;;27.23;6.53;;;5.80;99.90;;;;;;5073101;28;20081;-70
2021/01/18 05:38:05;;;;;;;37.30;7.28;;;5.90;99.90;;;;;;5073545;28;20028;-70
2021/01/18 05:40:35;;;;;;;26.40;7.60;;;5.80;99.90;;;;;;5072922;28;20094;-70
2021/01/18 05:43:02;;;;;;;24.98;7.70;;;5.80;99.90;;;;;;5073077;28;20024;-70
2021/01/18 05:45:32;;;;;;;27.27;6.90;;;5.90;99.90;;;;;;5073455;28;20020;-71
2021/01/18 05:48:00;;;;;;;28.42;6.60;;;5.90;99.90;;;;;;5074497;28;20580;-71
2021/01/18 05:50:27;;;;;;;33.08;8.77;;;5.80;99.90;;;;;;5071828;28;20040;-71
2021/01/18 05:52:53;;;;;;;29.42;6.13;;;5.80;99.90;;;;;;5072426;28;20040;-71
2021/01/18 05:55:24;;;;;;;28.20;6.43;;;5.80;99.90;;;;;;5073102;28;20028;-69
2021/01/18 05:57:52;;;;;;;26.60;6.72;;;5.90;99.90;;;;;;5072694;28;20118;-71
2021/01/18 06:00:41;;;;;;;26.83;6.07;;;5.90;99.90;;;;;;5073379;28;20028;-70
2021/01/18 06:03:11;;;;;;;32.42;6.32;;;6.00;99.90;;;;;;5072861;28;20079;-70
2021/01/18 06:05:39;;;;;;;30.60;6.57;;;6.00;99.90;;;;;;5073165;28;20071;-72
2021/01/18 06:08:15;;;;;;;;;;;6.00;99.90;;;;;;5072487;28;20552;-69
2021/01/18 06:10:42;;;;;;;27.00;5.85;;;5.90;99.90;;;;;;5072313;28;19912;-69
2021/01/18 06:13:18;;;;;;;23.10;6.03;;;6.00;99.90;;;;;;5072819;28;20040;-70
2021/01/18 06:15:45;;;;;;;18.10;5.95;;;6.00;99.90;;;;;;5072079;28;20124;-70
2021/01/18 06:18:14;;;;;;;30.52;6.25;;;6.00;99.90;;;;;;5074120;28;20116;-70
2021/01/18 06:20:45;;;;;;;25.10;6.03;;;5.80;99.90;;;;;;5071953;28;20112;-71
2021/01/18 06:23:20;;;;;;;27.55;6.00;;;5.80;99.90;;;;;;5070941;28;20475;-70
2021/01/18 06:25:51;;;;;;;22.60;5.43;;;5.90;99.90;;;;;;5060903;28;20060;-70
2021/01/18 06:28:28;;;;;;;24.90;5.18;;;6.10;99.90;;;;;;5059441;28;20439;-70
2021/01/18 06:31:07;;;;;;;25.35;6.22;;;6.10;99.90;;;;;;5069513;28;20036;-70
2021/01/18 06:33:40;;;;;;;34.35;5.35;;;6.00;99.90;;;;;;5071093;28;20109;-71
2021/01/18 06:36:24;;;;;;;22.73;6.60;;;6.10;99.90;;;;;;5073856;28;20063;-71
2021/01/18 06:38:57;;;;;;;19.20;5.47;;;6.10;99.90;;;;;;5072335;28;20043;-70
2021/01/18 06:41:25;;;;;;;29.33;5.65;;;6.10;99.90;;;;;;5072141;28;20108;-71
2021/01/18 06:43:51;;;;;;;34.78;5.50;;;6.00;99.90;;;;;;5071112;28;20052;-70
2021/01/18 06:46:24;;;;;;;18.90;5.65;;;6.00;99.90;;;;;;5071629;28;20038;-70
2021/01/18 06:48:51;;;;;;;26.52;5.70;;;6.00;99.90;;;;;;5071732;28;20025;-71
2021/01/18 06:51:22;;;;;;;24.50;5.97;;;6.10;99.90;;;;;;5073330;28;20065;-70
2021/01/18 06:53:50;;;;;;;25.27;5.40;;;6.00;99.90;;;;;;5071389;28;20085;-71
2021/01/18 06:56:22;;;;;;;29.38;6.20;;;6.00;99.90;;;;;;5071788;28;20541;-70
2021/01/18 06:59:12;;;;;;;28.33;6.72;;;6.10;99.90;;;;;;5071598;28;20071;-69
2021/01/18 07:01:39;;;;;;;18.63;6.40;;;6.00;99.90;;;;;;5071524;28;20103;-70
2021/01/18 07:04:17;;;;;;;24.08;6.07;;;6.00;99.90;;;;;;5071114;28;20523;-71
2021/01/18 07:06:44;;;;;;;25.10;6.18;;;6.00;99.90;;;;;;5071734;28;20043;-71
2021/01/18 07:09:11;;;;;;;22.10;6.00;;;6.10;99.90;;;;;;5073208;28;20025;-72
2021/01/18 07:11:37;;;;;;;22.42;5.68;;;6.10;99.90;;;;;;5071648;28;20032;-71
2021/01/18 07:14:08;;;;;;;29.05;6.32;;;6.10;99.90;;;;;;5071726;28;20059;-72
2021/01/18 07:16:35;;;;;;;22.95;6.38;;;6.10;99.90;;;;;;5071631;28;20036;-73
2021/01/18 07:19:03;;;;;;;24.42;6.10;;;6.00;99.90;;;;;;5066609;28;20036;-73
2021/01/18 07:21:53;;;;;;;24.67;5.63;;;6.10;99.90;;;;;;5051647;28;20051;-72
2021/01/18 07:24:25;;;;;;;21.92;5.03;;;6.10;99.90;;;;;;5053015;28;20017;-72
2021/01/18 07:26:57;;;;;;;19.33;5.63;;;6.10;99.90;;;;;;5051638;28;20416;-73
2021/01/18 07:29:26;;;;;;;24.48;5.45;;;6.10;99.90;;;;;;5051072;28;20354;-73
2021/01/18 07:31:57;;;;;;;23.90;5.97;;;6.10;99.90;;;;;;5051204;28;20025;-70
2021/01/18 07:34:25;;;;;;;13.65;5.20;;;6.10;99.90;;;;;;5051387;28;20037;-71
2021/01/18 07:36:52;;;;;;;20.92;4.57;;;6.10;99.90;;;;;;5050996;28;20040;-73
2021/01/18 07:39:28;;;;;;;14.60;4.33;;;6.00;99.90;;;;;;5052662;28;20037;-71
2021/01/18 07:41:54;;;;;;;15.27;4.40;;;6.00;99.90;;;;;;5051195;28;20060;-76
2021/01/18 07:44:42;;;;;;;18.48;5.32;;;6.10;99.90;;;;;;5051032;28;20495;-74
2021/01/18 07:47:14;;;;;;;18.30;4.75;;;6.10;99.90;;;;;;5050632;28;20041;-75
2021/01/18 07:49:48;;;;;;;16.27;4.10;;;6.20;99.90;;;;;;5061704;28;20032;-74
2021/01/18 07:52:25;;;;;;;19.13;4.88;;;6.20;99.90;;;;;;5070358;28;20090;-75
2021/01/18 07:54:52;;;;;;;14.07;4.72;;;6.30;99.90;;;;;;5071181;28;20035;-77
2021/01/18 07:57:28;;;;;;;10.73;4.10;;;6.20;99.90;;;;;;5072573;28;20479;-74
2021/01/18 08:00:18;;;;;;;17.50;5.20;;;6.30;99.90;;;;;;5071465;28;20033;-76
2021/01/18 08:02:54;;;;;;;13.23;3.88;;;6.30;99.90;;;;;;5071198;28;20477;-75
2021/01/18 08:05:33;;;;;;;23.23;4.07;;;6.20;99.90;;;;;;5071163;28;20043;-76
2021/01/18 08:08:16;;;;;;;14.38;3.83;;;6.30;99.90;;;;;;5069992;28;20028;-75
2021/01/18 08:11:04;;;;;;;20.05;4.70;;;6.30;99.90;;;;;;5070697;28;20311;-76
2021/01/18 08:13:42;;;;;;;20.13;4.68;;;6.30;99.90;;;;;;5070859;28;20036;-77
2021/01/18 08:16:26;;;;;;;8.15;3.55;;;6.30;99.90;;;;;;5072071;28;20044;-78
2021/01/18 08:18:52;;;;;;;16.40;4.32;;;6.30;99.90;;;;;;5074542;28;20438;-73
2021/01/18 08:21:33;;;;;;;16.10;4.32;;;6.40;99.90;;;;;;5076133;28;20039;-71
2021/01/18 08:24:06;;;;;;;11.98;4.28;;;6.40;99.90;;;;;;5074793;28;20074;-76
2021/01/18 08:26:50;;;;;;;15.77;3.90;;;6.50;99.90;;;;;;5074808;28;20025;-74
2021/01/18 08:29:44;;;;;;;19.42;4.80;;;6.40;99.90;;;;;;5073162;28;20120;-73
2021/01/18 08:32:30;;;;;;;16.92;3.95;;;6.40;99.90;;;;;;5074438;28;20024;-76
2021/01/18 08:35:08;;;;;;;12.43;4.25;;;6.50;99.90;;;;;;5074275;28;20550;-76
2021/01/18 08:37:34;;;;;;;;;;;6.50;99.90;;;;;;5074640;28;20048;-74
2021/01/18 08:40:12;;;;;;;15.35;4.70;;;6.60;99.90;;;;;;5073737;28;19916;-75
2021/01/18 08:42:40;;;;;;;13.45;4.63;;;6.60;99.90;;;;;;5074105;28;20115;-75
2021/01/18 08:45:27;;;;;;;13.95;5.18;;;6.60;99.90;;;;;;5075656;28;20020;-72
2021/01/18 08:47:58;;;;;;;15.70;4.75;;;6.70;99.90;;;;;;5054122;28;20144;-74
2021/01/18 08:50:29;;;;;;;19.95;5.35;;;6.70;99.90;;;;;;5053728;28;20072;-76
2021/01/18 08:53:29;;;;;;;24.48;5.05;;;6.70;99.90;;;;;;5066141;28;20050;-72
2021/01/18 08:56:06;;;;;;;22.73;4.80;;;6.70;99.90;;;;;;5073631;28;20068;-73
2021/01/18 08:58:45;;;;;;;12.10;4.90;;;6.70;99.90;;;;;;5070093;28;20403;-74
2021/01/18 09:01:27;;;;;;;22.73;5.90;;;6.80;99.90;;;;;;5073657;28;20078;-71
2021/01/18 09:04:11;;;;;;;22.85;5.50;;;6.80;99.90;;;;;;5069850;28;20021;-74
2021/01/18 09:06:38;;;;;;;11.10;5.55;;;6.80;99.90;;;;;;5054335;28;20093;-71
2021/01/18 09:09:06;;;;;;;17.65;5.78;;;6.80;99.90;;;;;;5075405;28;20119;-71
2021/01/18 09:11:32;;;;;;;24.00;6.30;;;6.90;99.90;;;;;;5073667;28;20032;-71
2021/01/18 09:13:58;;;;;;;19.08;6.30;;;6.90;99.90;;;;;;5073822;28;20032;-74
2021/01/18 09:16:24;;;;;;;24.45;6.30;;;6.90;99.90;;;;;;5072528;28;20056;-77
2021/01/18 09:18:50;;;;;;;13.52;6.40;;;7.00;99.90;;;;;;5073763;28;20438;-74
2021/01/18 09:21:19;;;;;;;20.67;7.47;;;7.00;99.90;;;;;;5075545;28;20028;-79
2021/01/18 09:23:45;;;;;;;29.13;8.25;;;7.10;99.90;;;;;;5073177;28;20051;-76
2021/01/18 09:26:13;;;;;;;23.70;7.90;;;7.10;99.90;;;;;;5073413;28;20032;-73
2021/01/18 09:28:39;;;;;;;;;;;7.00;99.90;;;;;;5072557;28;20024;-73
2021/01/18 09:31:13;;;;;;;26.63;8.35;;;7.10;99.90;;;;;;5072959;28;19912;-73
2021/01/18 09:33:43;;;;;;;24.40;8.82;;;7.00;99.90;;;;;;5073014;28;20059;-73
2021/01/18 09:36:14;;;;;;;27.70;10.52;;;7.00;99.90;;;;;;5074587;28;20025;-74
2021/01/18 09:38:41;;;;;;;23.15;9.35;;;7.10;99.90;;;;;;5071025;28;20032;-73
2021/01/18 09:41:07;;;;;;;29.48;10.77;;;7.20;99.90;;;;;;5072983;28;20028;-72
2021/01/18 09:43:33;;;;;;;30.85;11.63;;;7.10;99.90;;;;;;5072974;28;20083;-71
2021/01/18 09:46:01;;;;;;;25.48;10.20;;;7.00;99.90;;;;;;5068187;28;20029;-72
2021/01/18 09:48:27;;;;;;;26.33;10.05;;;7.10;99.90;;;;;;5052782;28;20060;-73
2021/01/18 09:51:02;;;;;;;27.67;11.35;;;7.00;99.90;;;;;;5053556;28;20041;-73
2021/01/18 09:53:28;;;;;;;29.02;10.80;;;7.00;99.90;;;;;;5069159;28;20362;-73
2021/01/18 09:55:59;;;;;;;30.02;11.32;;;7.00;99.90;;;;;;5072489;28;20113;-71
2021/01/18 09:58:36;;;;;;;25.67;10.88;;;7.00;99.90;;;;;;5072643;28;20450;-70
2021/01/18 10:01:17;;;;;;;28.50;10.63;;;7.10;99.90;;;;;;5071453;28;20473;-71
2021/01/18 10:03:56;;;;;;;37.58;12.20;;;7.10;99.90;;;;;;5072825;28;20024;-72
2021/01/18 10:06:28;;;;;;;30.08;11.52;;;7.10;99.90;;;;;;5074018;28;20028;-71
2021/01/18 10:09:05;;;;;;;26.27;10.27;;;7.10;99.90;;;;;;5072684;28;20033;-71
2021/01/18 10:11:48;;;;;;;26.95;11.65;;;7.20;99.90;;;;;;5071924;28;20039;-70
2021/01/18 10:14:19;;;;;;;26.20;10.77;;;7.30;99.90;;;;;;5072298;28;20117;-70
2021/01/18 10:17:05;;;;;;;34.63;11.23;;;7.20;99.90;;;;;;5072215;28;20362;-71
2021/01/18 10:19:33;;;;;;;24.85;11.68;;;7.30;99.90;;;;;;5070940;28;20025;-72
2021/01/18 10:22:00;;;;;;;25.77;10.68;;;7.40;99.90;;;;;;5072207;28;20032;-71
2021/01/18 10:24:30;;;;;;;27.23;10.82;;;7.40;99.90;;;;;;5072163;28;20035;-72
2021/01/18 10:27:12;;;;;;;19.45;9.95;;;7.40;99.90;;;;;;5073938;28;20451;-70
2021/01/18 10:29:38;;;;;;;29.60;10.77;;;7.40;99.90;;;;;;5072445;28;20040;-71
2021/01/18 10:32:05;;;;;;;29.63;10.43;;;7.30;99.90;;;;;;5072212;28;20040;-72
2021/01/18 10:34:34;;;;;;;29.75;9.65;;;7.40;99.90;;;;;;5070560;28;20105;-72
2021/01/18 10:37:15;;;;;;;30.15;10.77;;;7.30;99.90;;;;;;5072089;28;20481;-72
2021/01/18 10:39:46;;;;;;;31.23;10.95;;;7.30;99.90;;;;;;5071416;28;20135;-75
2021/01/18 10:42:15;;;;;;;31.52;11.20;;;7.20;99.90;;;;;;5073553;28;20016;-73
2021/01/18 10:45:00;;;;;;;33.25;10.90;;;7.20;99.90;;;;;;5070903;28;20112;-71
2021/01/18 10:47:28;;;;;;;23.92;10.90;;;7.10;99.90;;;;;;5071314;28;20082;-71
2021/01/18 10:49:58;;;;;;;33.95;12.10;;;7.10;99.90;;;;;;5071807;28;20059;-74
2021/01/18 10:52:32;;;;;;;40.55;12.10;;;7.20;99.90;;;;;;5071851;28;20032;-75
2021/01/18 10:54:59;;;;;;;26.58;11.45;;;7.20;99.90;;;;;;5072083;28;20107;-75
2021/01/18 10:57:26;;;;;;;28.23;11.70;;;7.20;99.90;;;;;;5071861;28;20197;-72
2021/01/18 11:00:11;;;;;;;32.50;12.87;;;7.20;99.90;;;;;;5072756;28;20049;-76
2021/01/18 11:02:39;;;;;;;28.98;12.00;;;7.20;99.90;;;;;;5071864;28;20398;-74
2021/01/18 11:05:09;;;;;;;28.48;12.13;;;7.20;99.90;;;;;;5071663;28;20079;-74
2021/01/18 11:07:36;;;;;;;31.35;11.23;;;7.20;99.90;;;;;;5066938;28;20036;-75
2021/01/18 11:10:04;;;;;;;38.08;12.77;;;7.20;99.90;;;;;;5071924;28;20047;-75
2021/01/18 11:12:31;;;;;;;36.50;12.65;;;7.30;99.90;;;;;;5071767;28;20016;-73
2021/01/18 11:14:59;;;;;;;37.42;14.25;;;7.40;99.90;;;;;;5073388;28;20111;-78
2021/01/18 11:17:29;;;;;;;37.08;13.32;;;7.40;99.90;;;;;;5071306;28;20049;-70
2021/01/18 11:19:54;;;;;;;31.98;13.48;;;7.40;99.90;;;;;;5071492;28;20079;-71
2021/01/18 11:22:20;;;;;;;27.30;13.75;;;7.40;99.90;;;;;;5070254;28;20459;-72
2021/01/18 11:24:47;;;;;;;39.67;14.80;;;7.40;99.90;;;;;;5067666;28;20033;-72
2021/01/18 11:27:12;;;;;;;47.45;15.57;;;7.40;99.90;;;;;;5052802;28;20177;-72
2021/01/18 11:29:38;;;;;;;38.30;15.02;;;7.30;99.90;;;;;;5050455;28;20052;-77
2021/01/18 11:32:04;;;;;;;45.17;16.17;;;7.40;99.90;;;;;;5051317;28;20068;-72
2021/01/18 11:34:30;;;;;;;50.75;16.20;;;7.40;99.90;;;;;;5051525;28;20025;-78
2021/01/18 11:37:05;;;;;;;40.80;15.57;;;7.30;99.90;;;;;;5051241;28;20376;-71
2021/01/18 11:39:31;;;;;;;44.25;16.38;;;7.40;99.90;;;;;;5051811;28;20041;-71
2021/01/18 11:42:01;;;;;;;40.50;16.05;;;7.40;99.90;;;;;;5073258;28;20066;-79
2021/01/18 11:44:27;;;;;;;47.08;15.60;;;7.40;99.90;;;;;;5071242;28;20556;-69
2021/01/18 11:46:57;;;;;;;38.40;16.95;;;7.40;99.90;;;;;;5070762;28;20052;-71
2021/01/18 11:49:22;;;;;;;43.38;15.55;;;7.50;99.90;;;;;;5070985;28;20028;-72
2021/01/18 11:51:49;;;;;;;30.88;15.52;;;7.40;99.90;;;;;;5074279;28;20043;-71
2021/01/18 11:54:14;;;;;;;33.63;15.45;;;7.40;99.90;;;;;;5076715;28;20017;-71
2021/01/18 11:56:40;;;;;;;48.00;15.75;;;7.40;99.90;;;;;;5073733;28;20051;-71
2021/01/18 11:59:06;;;;;;;41.40;17.20;;;7.30;99.90;;;;;;5073667;28;20060;-71
2021/01/18 12:01:32;;;;;;;41.67;16.73;;;7.40;99.90;;;;;;5074831;28;20033;-73
2021/01/18 12:03:59;;;;;;;44.03;17.23;;;7.40;99.90;;;;;;5074881;28;20143;-71
2021/01/18 12:06:38;;;;;;;38.55;15.98;;;7.40;99.90;;;;;;5076675;28;20101;-70
2021/01/18 12:09:08;;;;;;;44.60;16.40;;;7.40;99.90;;;;;;5074935;28;20482;-71
2021/01/18 12:11:41;;;;;;;37.83;16.55;;;7.50;99.90;;;;;;5074246;28;20534;-71
2021/01/18 12:14:08;;;;;;;35.88;15.68;;;7.50;99.90;;;;;;5074788;28;20087;-72
2021/01/18 12:16:35;;;;;;;40.60;15.70;;;7.50;99.90;;;;;;5073494;28;20041;-70
2021/01/18 12:19:01;;;;;;;45.83;16.05;;;7.50;99.90;;;;;;5075131;28;20068;-71
2021/01/18 12:21:26;;;;;;;44.97;15.77;;;7.60;99.90;;;;;;5074468;28;20037;-72
2021/01/18 12:23:52;;;;;;;42.88;16.30;;;7.60;99.90;;;;;;5076243;28;20035;-71
2021/01/18 12:26:19;;;;;;;35.15;14.82;;;7.60;99.90;;;;;;5074679;28;20037;-70
2021/01/18 12:28:47;;;;;;;38.33;14.85;;;7.60;99.90;;;;;;5074294;28;20029;-71
2021/01/18 12:31:14;;;;;;;38.72;14.52;;;7.50;99.90;;;;;;5074598;28;20036;-70
2021/01/18 12:33:40;;;;;;;40.75;15.30;;;7.70;99.90;;;;;;5074468;28;20021;-71
2021/01/18 12:36:06;;;;;;;43.17;16.13;;;7.60;99.80;;;;;;5075919;28;20032;-71
2021/01/18 12:38:32;;;;;;;32.25;14.60;;;7.60;99.80;;;;;;5074428;28;20036;-71
2021/01/18 12:40:58;;;;;;;35.85;14.02;;;7.50;99.60;;;;;;5073150;28;20037;-73
2021/01/18 12:43:24;;;;;;;34.72;12.48;;;7.60;99.80;;;;;;5074192;28;20036;-73
2021/01/18 12:45:50;;;;;;;36.35;13.10;;;7.50;99.80;;;;;;5073367;28;20029;-71
2021/01/18 12:48:17;;;;;;;36.72;13.43;;;7.60;99.80;;;;;;5075568;28;20029;-71
2021/01/18 12:50:44;;;;;;;29.10;13.35;;;7.60;99.70;;;;;;5074359;28;20039;-71
2021/01/18 12:53:10;;;;;;;32.55;13.63;;;7.60;99.70;;;;;;5073770;28;20040;-71
2021/01/18 12:55:37;;;;;;;35.85;13.23;;;7.60;99.70;;;;;;5074061;28;20032;-70
2021/01/18 12:58:03;;;;;;;33.78;12.88;;;7.60;99.70;;;;;;5073875;28;20504;-72
2021/01/18 13:00:29;;;;;;;33.10;12.52;;;7.50;99.70;;;;;;5074138;28;20040;-72
2021/01/18 13:02:55;;;;;;;34.10;13.55;;;7.70;99.70;;;;;;5074243;28;20517;-71